Aérodrome :
LOGIN :

S'inscrire | Disclaimer

   EN    FR    IT 

 










Légende :    VFR   VFR Marginal   IFR   IFR Intensif   IFR Très Intensif
Visi : 
Plafond : 
>= 8 km
>= 3000ft
5 à 8 km
1000 à 3000 ft
1500m à 5 km
500 à 1000 ft
800 à 1500m
200 à 500 ft
< 800m
< 200 ft
Symboles :   Orages  Brouillard  Fortes neiges  Fortes précipitations  Vent > 20 kt
SIGMETs :   Divers  Orages  Givrage  Turbulence  Onde Orograph.  Cendres Volcan.







- Altitude de l'aérodrome : 370 ft


EBBE - Beauvechain AB

DERNIER METAR :
  • 161455Z 26017KT 9999 FEW037 SCT140 06/M01 Q0996 BLU BLU TEMPO WHT

METARs EXPIRÉS :
  • 161425Z 25019KT 9999 FEW037 SCT140 07/M00 Q0995 BLU BLU TEMPO WHT
  • 161355Z 26019KT 9999 FEW037 SCT140 07/M00 Q0996 BLU BLU TEMPO WHT
  • 161325Z 26014KT 9999 FEW035 SCT042 06/00 Q0995 BLU BLU TEMPO WHT
  • 161255Z 26013KT 9999 FEW032 SCT039 07/M00 Q0996 BLU BLU TEMPO WHT

TAF TAF EBBE
Valide du 16 à 13h jusqu'au 16 à 22h UTC


161141Z 1613/1622 27020G30KT 9999 FEW018TCU SCT025 BKN035
TEMPO 1610/1622 27025G35KT 6000 -SHRA SCT015TCU BKN017
BECMG 1615/1617 25015G25KT
Pas de NOTAMs connus pour ce terrain.
1 SIGMET publié pour la FIR Brussels (EBBU) :
 
Turbulence forte
EBBU SIGMET 03 VALID 161200/161600 EBBR
EBBU BRUSSELS FIR SEV TURB FCST W OF LINE N5046 E00244-N5115 E00344 SFC/FL050 STNR NC=



MET'MAP, la Météo Aéronautique d'un coup d'oeil ! - Copyright ORBIFLY Décembre 2007 - Disclaimer

ORBIFLY MET'MAP TEAM :

Programmation & Développement : Alexandra Zaïnal
Conception & Développement : Baudouin d'Aumeries
Co-Programmation & Développement : Marc-Olivier Méhu
Soutien technique & logistique : Manuel Goepfert

Contact : metmap@orbifly.com




SOURCES & CREDITS :

   NOAA